Time;durP1;ratioP1;P1;durP2;ratioP2;P2;SDS_P1;SDS_P2;PMS_P1;PMS_P2;Temp;Humidity;BMP_temperature;BMP_pressure;BME280_temperature;BME280_humidity;BME280_pressure;Samples;Min_cycle;Max_cycle;Signal;HPM_P1;HPM_P2
2023/02/07 00:01:15;;;;;;;10.35;6.95;;;;;;;-7.36;100.00;94286.75;5071210;28;20051;-68
2023/02/07 00:03:43;;;;;;;12.95;7.18;;;;;;;-7.36;100.00;94284.25;5071589;28;20568;-68
2023/02/07 00:06:13;;;;;;;10.75;7.93;;;;;;;-7.27;100.00;94283.81;5065540;28;20048;-68
2023/02/07 00:08:41;;;;;;;10.02;7.10;;;;;;;-7.26;100.00;94294.59;5064423;28;20049;-68
2023/02/07 00:11:15;;;;;;;9.60;6.82;;;;;;;-7.27;100.00;94298.78;5071829;28;20052;-68
2023/02/07 00:13:42;;;;;;;9.90;7.15;;;;;;;-7.17;100.00;94295.84;5071122;28;20177;-68
2023/02/07 00:16:09;;;;;;;11.23;7.15;;;;;;;-7.17;100.00;94299.13;5071173;28;20098;-68
2023/02/07 00:18:36;;;;;;;12.90;8.43;;;;;;;-7.16;100.00;94294.97;5070994;28;20045;-68
2023/02/07 00:21:05;;;;;;;13.88;8.60;;;;;;;-7.21;100.00;94312.66;5071406;28;20044;-68
2023/02/07 00:23:34;;;;;;;14.40;9.55;;;;;;;-7.23;100.00;94303.63;5071357;28;20045;-68
2023/02/07 00:26:01;;;;;;;13.57;9.10;;;;;;;-7.27;100.00;94307.97;5071272;28;20053;-68
2023/02/07 00:28:28;;;;;;;15.63;9.65;;;;;;;-7.24;100.00;94312.81;5070666;28;20040;-69
2023/02/07 00:31:03;;;;;;;13.27;9.18;;;;;;;-7.21;100.00;94319.34;5071005;28;20060;-68
2023/02/07 00:33:30;;;;;;;16.45;9.30;;;;;;;-7.20;100.00;94316.78;5057560;28;20179;-68
2023/02/07 00:35:57;;;;;;;17.10;10.00;;;;;;;-7.22;100.00;94325.22;5071180;28;20933;-68
2023/02/07 00:38:24;;;;;;;14.75;9.77;;;;;;;-7.30;100.00;94323.91;5071075;28;20554;-68
2023/02/07 00:40:52;;;;;;;15.05;9.70;;;;;;;-7.33;100.00;94334.03;5070688;28;20059;-68
2023/02/07 00:43:19;;;;;;;16.42;10.27;;;;;;;-7.31;100.00;94327.25;5070819;28;20090;-68
2023/02/07 00:45:46;;;;;;;16.73;10.15;;;;;;;-7.29;100.00;94328.00;5070798;28;20094;-68
2023/02/07 00:48:12;;;;;;;14.93;9.93;;;;;;;-7.25;100.00;94339.47;5070716;28;20044;-68
2023/02/07 00:50:40;;;;;;;16.60;10.23;;;;;;;-7.21;100.00;94334.31;5070716;28;20036;-68
2023/02/07 00:53:07;;;;;;;14.82;10.20;;;;;;;-7.20;100.00;94335.94;5070686;28;20048;-68
2023/02/07 00:55:34;;;;;;;14.98;9.45;;;;;;;-7.25;100.00;94338.66;5070659;28;20412;-68
2023/02/07 00:58:02;;;;;;;15.65;9.95;;;;;;;-7.25;100.00;94333.66;5070309;28;20049;-68
2023/02/07 01:00:28;;;;;;;14.70;9.38;;;;;;;-7.19;100.00;94337.56;5070180;28;20045;-68
2023/02/07 01:02:55;;;;;;;14.98;9.48;;;;;;;-7.18;100.00;94327.47;5070230;28;20105;-68
2023/02/07 01:05:22;;;;;;;18.17;11.38;;;;;;;-7.05;100.00;94324.41;5069719;28;20049;-69
2023/02/07 01:07:49;;;;;;;15.75;10.73;;;;;;;-7.05;100.00;94329.41;5070233;28;20453;-69
2023/02/07 01:10:15;;;;;;;18.38;11.00;;;;;;;-6.80;100.00;94321.50;5070271;28;20044;-68
2023/02/07 01:12:42;;;;;;;16.27;10.98;;;;;;;-6.91;100.00;94324.53;5070335;28;20076;-68
2023/02/07 01:15:10;;;;;;;15.43;9.95;;;;;;;-6.77;100.00;94326.34;5058524;28;20565;-68
2023/02/07 01:17:37;;;;;;;16.73;10.93;;;;;;;-6.66;100.00;94327.50;5068947;28;20044;-68
2023/02/07 01:20:04;;;;;;;16.67;11.32;;;;;;;-6.56;100.00;94328.66;5070442;28;20102;-68
2023/02/07 01:22:31;;;;;;;16.60;10.05;;;;;;;-6.68;100.00;94330.06;5069897;28;20563;-68
2023/02/07 01:24:58;;;;;;;17.85;11.45;;;;;;;-6.68;100.00;94331.78;5070132;28;20044;-68
2023/02/07 01:27:24;;;;;;;16.02;10.95;;;;;;;-6.70;100.00;94321.84;5069651;28;20043;-68
2023/02/07 01:29:51;;;;;;;16.52;10.90;;;;;;;-6.71;100.00;94318.53;5069328;28;20097;-68
2023/02/07 01:32:19;;;;;;;16.42;10.77;;;;;;;-6.93;100.00;94318.81;5069322;28;20446;-68
2023/02/07 01:34:46;;;;;;;18.75;10.73;;;;;;;-6.91;100.00;94311.25;5070111;28;20098;-68
2023/02/07 01:37:13;;;;;;;14.95;10.35;;;;;;;-6.79;100.00;94315.63;5069434;28;20423;-68
2023/02/07 01:39:39;;;;;;;15.25;10.63;;;;;;;-6.78;100.00;94304.75;5069761;28;20476;-68
2023/02/07 01:42:06;;;;;;;11.80;8.40;;;;;;;-6.94;100.00;94308.88;5069726;28;20049;-68
2023/02/07 01:45:09;;;;;;;15.52;10.18;;;;;;;-7.14;100.00;94299.00;5069772;28;20044;-68
2023/02/07 01:47:37;;;;;;;15.30;9.32;;;;;;;-7.21;100.00;94295.19;5069506;28;20041;-68
2023/02/07 01:50:05;;;;;;;15.88;10.93;;;;;;;-7.22;100.00;94300.25;5069132;28;20048;-69
2023/02/07 01:52:36;;;;;;;12.73;8.20;;;;;;;-7.47;100.00;94261.47;5069701;28;20036;-69
2023/02/07 01:55:07;;;;;;;12.52;8.48;;;;;;;-7.25;100.00;94289.53;5069788;28;20117;-69
2023/02/07 01:57:35;;;;;;;14.63;9.32;;;;;;;-7.26;100.00;94297.09;5069146;28;20049;-69
2023/02/07 02:00:02;;;;;;;18.13;11.68;;;;;;;-7.19;100.00;94298.41;5069663;28;20319;-69
2023/02/07 02:02:34;;;;;;;14.32;9.07;;;;;;;-7.26;100.00;94300.38;5069695;28;20040;-69
2023/02/07 02:05:03;;;;;;;13.35;8.95;;;;;;;-7.33;100.00;94300.78;5068987;28;20041;-69
2023/02/07 02:07:32;;;;;;;14.75;9.30;;;;;;;-7.43;100.00;94302.88;5068905;28;20049;-69
2023/02/07 02:09:59;;;;;;;15.25;9.90;;;;;;;-7.47;100.00;94299.75;5069477;28;20055;-69
2023/02/07 02:12:39;;;;;;;22.55;14.90;;;;;;;-7.63;100.00;94279.72;5069159;28;20052;-69
2023/02/07 02:15:20;;;;;;;18.60;11.40;;;;;;;-7.57;100.00;94294.38;5042497;28;20500;-69
2023/02/07 02:18:00;;;;;;;21.33;12.57;;;;;;;-7.53;100.00;94300.03;5064763;28;20048;-68
2023/02/07 02:21:01;;;;;;;16.85;11.20;;;;;;;-7.59;100.00;94303.63;5069479;28;20137;-69
2023/02/07 02:23:39;;;;;;;17.20;11.40;;;;;;;-7.57;100.00;94303.53;5069125;28;20044;-69
2023/02/07 02:26:39;;;;;;;17.05;9.80;;;;;;;-7.51;100.00;94305.75;5069336;28;20082;-69
2023/02/07 02:29:31;;;;;;;28.33;16.13;;;;;;;-7.58;100.00;94302.75;5069230;28;20048;-69
2023/02/07 02:32:37;;;;;;;49.95;24.35;;;;;;;-7.48;100.00;94304.78;5069046;28;20093;-69
2023/02/07 02:35:08;;;;;;;19.63;12.45;;;;;;;-7.49;100.00;94305.69;5068706;28;20641;-69
2023/02/07 02:37:46;;;;;;;22.83;14.07;;;;;;;-7.55;100.00;94304.31;5068836;28;20421;-69
2023/02/07 02:40:20;;;;;;;14.07;9.32;;;;;;;-7.43;100.00;94307.88;5054407;28;20049;-69
2023/02/07 02:42:53;;;;;;;13.98;8.63;;;;;;;-7.48;100.00;94312.28;5048420;28;20079;-68
2023/02/07 02:45:27;;;;;;;13.48;8.52;;;;;;;-7.57;100.00;94306.88;5048709;28;20045;-68
2023/02/07 02:47:56;;;;;;;13.60;9.40;;;;;;;-7.42;100.00;94309.50;5048061;28;20060;-68
2023/02/07 02:50:26;;;;;;;12.80;8.95;;;;;;;-7.54;100.00;94314.19;5048561;28;20053;-68
2023/02/07 02:52:53;;;;;;;13.27;10.02;;;;;;;-7.47;100.00;94304.72;5048395;28;20471;-68
2023/02/07 02:55:31;;;;;;;12.75;8.82;;;;;;;-7.45;100.00;94315.44;5048379;28;20448;-69
2023/02/07 02:58:10;;;;;;;14.25;8.70;;;;;;;-7.46;100.00;94293.06;5048113;28;20049;-69
2023/02/07 03:00:54;;;;;;;15.48;10.15;;;;;;;-7.41;100.00;94318.63;5047968;28;20529;-69
2023/02/07 03:03:35;;;;;;;15.52;10.38;;;;;;;-7.21;100.00;94317.66;5048066;28;20056;-69
2023/02/07 03:06:12;;;;;;;15.57;9.75;;;;;;;-7.36;100.00;94326.69;5048475;28;20045;-69
2023/02/07 03:08:45;;;;;;;19.67;11.68;;;;;;;-7.39;100.00;94327.66;5048250;28;20126;-69
2023/02/07 03:11:15;;;;;;;16.60;10.43;;;;;;;-7.83;100.00;94300.59;5048122;28;20091;-69
2023/02/07 03:13:57;;;;;;;15.73;10.18;;;;;;;-7.73;100.00;94309.25;5048001;28;20045;-69
2023/02/07 03:16:31;;;;;;;15.75;10.38;;;;;;;-7.70;100.00;94323.28;5048495;28;20189;-68
2023/02/07 03:19:04;;;;;;;18.55;11.18;;;;;;;-7.69;100.00;94329.91;5048120;28;20045;-68
2023/02/07 03:21:37;;;;;;;18.65;12.02;;;;;;;-7.75;100.00;94325.16;5048362;28;20045;-68
2023/02/07 03:24:09;;;;;;;17.45;10.70;;;;;;;-7.74;100.00;94326.81;5047971;28;20459;-68
2023/02/07 03:26:36;;;;;;;20.75;12.90;;;;;;;-7.72;100.00;94335.84;5047734;28;20056;-69
2023/02/07 03:29:06;;;;;;;15.00;9.95;;;;;;;-7.64;100.00;94323.00;5057265;28;20040;-68
2023/02/07 03:31:36;;;;;;;15.27;10.10;;;;;;;-7.70;100.00;94315.78;5071654;28;20052;-68
2023/02/07 03:34:08;;;;;;;13.60;9.48;;;;;;;-7.63;100.00;94322.13;5056313;28;20102;-68
2023/02/07 03:36:42;;;;;;;14.77;10.05;;;;;;;-7.57;100.00;94321.84;5051831;28;20463;-68
2023/02/07 03:39:09;;;;;;;13.90;9.60;;;;;;;-7.57;100.00;94316.03;5051704;28;20493;-68
2023/02/07 03:41:42;;;;;;;13.77;9.80;;;;;;;-7.58;100.00;94316.91;5051566;28;20076;-69
2023/02/07 03:44:12;;;;;;;13.32;8.57;;;;;;;-7.61;100.00;94317.03;5051772;28;20045;-68
2023/02/07 03:46:39;;;;;;;15.95;10.23;;;;;;;-7.73;100.00;94300.97;5051673;28;20064;-68
2023/02/07 03:49:08;;;;;;;16.63;10.45;;;;;;;-7.69;100.00;94330.69;5051668;28;20047;-68
2023/02/07 03:51:35;;;;;;;12.45;8.43;;;;;;;-7.67;100.00;94315.66;5050856;28;20493;-68
2023/02/07 03:54:02;;;;;;;17.65;10.30;;;;;;;-7.62;100.00;94317.94;5051817;28;20413;-68
2023/02/07 03:56:29;;;;;;;15.95;10.52;;;;;;;-7.64;100.00;94320.50;5051815;28;20048;-68
2023/02/07 03:58:56;;;;;;;25.38;15.93;;;;;;;-7.59;100.00;94322.78;5051104;28;20045;-68
2023/02/07 04:01:26;;;;;;;29.67;17.92;;;;;;;-7.67;100.00;94313.16;5051610;28;20041;-68
2023/02/07 04:03:53;;;;;;;30.23;16.50;;;;;;;-7.56;100.00;94325.13;5051563;28;20052;-68
2023/02/07 04:06:21;;;;;;;14.85;9.65;;;;;;;-7.60;100.00;94326.97;5051181;28;20045;-68
2023/02/07 04:08:48;;;;;;;19.55;11.25;;;;;;;-7.61;100.00;94300.41;5050981;28;20045;-68
2023/02/07 04:11:15;;;;;;;21.45;11.57;;;;;;;-7.48;100.00;94327.25;5051003;28;20091;-68
2023/02/07 04:13:42;;;;;;;22.67;11.60;;;;;;;-7.61;100.00;94317.84;5051300;28;20107;-68
2023/02/07 04:16:08;;;;;;;21.88;12.82;;;;;;;-7.59;100.00;94320.28;5051018;28;20449;-68
2023/02/07 04:18:35;;;;;;;17.05;10.48;;;;;;;-7.57;100.00;94321.84;5051106;28;20049;-69
2023/02/07 04:21:03;;;;;;;18.85;11.15;;;;;;;-7.66;100.00;94318.09;5050909;28;20052;-69
2023/02/07 04:23:31;;;;;;;16.95;11.13;;;;;;;-7.69;100.00;94317.44;5051120;28;20056;-69
2023/02/07 04:25:58;;;;;;;26.00;13.32;;;;;;;-7.62;100.00;94325.41;5050963;28;20394;-69
2023/02/07 04:28:27;;;;;;;30.58;14.57;;;;;;;-7.67;100.00;94318.16;5052055;28;20041;-68
2023/02/07 04:30:55;;;;;;;22.55;13.48;;;;;;;-7.68;100.00;94332.31;5070616;28;20045;-68
2023/02/07 04:33:22;;;;;;;20.30;11.60;;;;;;;-7.67;100.00;94328.94;5071028;28;20086;-69
2023/02/07 04:35:54;;;;;;;41.65;20.05;;;;;;;-7.88;100.00;94285.81;5070727;28;20451;-68
2023/02/07 04:38:21;;;;;;;23.27;13.60;;;;;;;-7.58;100.00;94321.91;5070688;28;20040;-68
2023/02/07 04:40:49;;;;;;;17.42;11.15;;;;;;;-7.66;100.00;94322.25;5069578;28;20041;-68
2023/02/07 04:43:16;;;;;;;36.03;20.67;;;;;;;-7.63;100.00;94336.28;5070759;28;20041;-68
2023/02/07 04:45:42;;;;;;;20.35;13.40;;;;;;;-7.66;100.00;94339.72;5070735;28;20048;-68
2023/02/07 04:48:09;;;;;;;27.23;18.63;;;;;;;-7.70;100.00;94331.56;5070360;28;20481;-68
2023/02/07 04:50:36;;;;;;;20.65;13.25;;;;;;;-7.72;100.00;94340.00;5070497;28;20048;-68
2023/02/07 04:53:03;;;;;;;18.15;11.88;;;;;;;-7.74;100.00;94342.56;5070414;28;20489;-68
2023/02/07 04:55:29;;;;;;;18.63;12.02;;;;;;;-7.66;100.00;94345.53;5070327;28;20063;-68
2023/02/07 04:57:57;;;;;;;14.13;9.90;;;;;;;-7.69;100.00;94354.84;5070204;28;20439;-68
2023/02/07 05:00:24;;;;;;;16.95;11.43;;;;;;;-7.74;100.00;94350.06;5070515;28;20040;-69
2023/02/07 05:02:51;;;;;;;16.40;9.95;;;;;;;-7.73;100.00;94353.38;5070042;28;20094;-69
2023/02/07 05:05:18;;;;;;;13.68;9.75;;;;;;;-7.76;100.00;94354.31;5070204;28;20041;-69
2023/02/07 05:07:44;;;;;;;16.88;11.07;;;;;;;-7.73;100.00;94355.84;5069977;28;20497;-69
2023/02/07 05:10:11;;;;;;;13.90;9.27;;;;;;;-7.81;100.00;94357.03;5070304;28;20037;-69
2023/02/07 05:12:38;;;;;;;15.07;10.45;;;;;;;-7.82;100.00;94360.38;5070018;28;20489;-69
2023/02/07 05:15:07;;;;;;;14.18;9.85;;;;;;;-7.82;100.00;94362.88;5069916;28;20488;-69
2023/02/07 05:17:33;;;;;;;14.75;10.27;;;;;;;-7.82;100.00;94359.59;5069819;28;20813;-68
2023/02/07 05:20:00;;;;;;;16.00;10.90;;;;;;;-7.75;100.00;94368.41;5069935;28;20044;-68
2023/02/07 05:22:27;;;;;;;18.50;11.48;;;;;;;-7.78;100.00;94366.06;5056415;28;20481;-68
2023/02/07 05:24:54;;;;;;;15.93;10.52;;;;;;;-7.72;100.00;94363.28;5048100;28;20440;-68
2023/02/07 05:27:21;;;;;;;17.75;11.57;;;;;;;-7.74;100.00;94370.00;5048956;28;20045;-68
2023/02/07 05:29:48;;;;;;;18.38;11.80;;;;;;;-7.79;100.00;94359.44;5061832;28;20079;-68
2023/02/07 05:35:01;;;;;;;25.30;16.35;;;;;;;-7.76;100.00;94361.78;5069385;28;20614;-68
2023/02/07 05:37:28;;;;;;;18.42;12.25;;;;;;;-7.72;100.00;94377.44;5069474;28;20036;-68
2023/02/07 05:39:54;;;;;;;17.20;11.60;;;;;;;-7.82;100.00;94382.03;5069033;28;20044;-68
2023/02/07 05:42:21;;;;;;;25.35;17.00;;;;;;;-7.83;100.00;94386.19;5069494;28;20066;-68
2023/02/07 05:44:48;;;;;;;32.17;21.52;;;;;;;-7.87;100.00;94364.75;5069072;28;20102;-68
2023/02/07 05:47:16;;;;;;;29.98;16.65;;;;;;;-7.78;100.00;94386.81;5069219;28;20044;-68
2023/02/07 05:49:43;;;;;;;39.35;21.65;;;;;;;-7.69;100.00;94388.06;5069243;28;20052;-68
2023/02/07 05:52:10;;;;;;;23.90;13.73;;;;;;;-7.76;100.00;94396.72;5068937;28;20439;-68
2023/02/07 05:54:36;;;;;;;27.00;15.63;;;;;;;-7.76;100.00;94393.41;5068936;28;20131;-68
2023/02/07 05:57:03;;;;;;;74.43;32.47;;;;;;;-7.74;100.00;94399.94;5069356;28;20044;-68
2023/02/07 05:59:30;;;;;;;68.80;33.90;;;;;;;-7.70;100.00;94403.94;5068682;28;20052;-68
2023/02/07 06:01:57;;;;;;;68.05;30.63;;;;;;;-7.71;100.00;94399.00;5069127;28;20048;-68
2023/02/07 06:04:26;;;;;;;25.83;17.52;;;;;;;-7.62;100.00;94397.78;5069305;28;20459;-68
2023/02/07 06:06:53;;;;;;;33.38;20.33;;;;;;;-7.59;100.00;94398.44;5068580;28;20333;-68
2023/02/07 06:09:20;;;;;;;19.70;13.25;;;;;;;-7.69;100.00;94387.28;5069106;28;20409;-68
2023/02/07 06:11:55;;;;;;;35.05;21.88;;;;;;;-7.71;100.00;94396.50;5069090;28;20421;-68
2023/02/07 06:14:23;;;;;;;22.17;14.63;;;;;;;-7.55;100.00;94397.41;5069051;28;20456;-68
2023/02/07 06:16:49;;;;;;;31.95;20.58;;;;;;;-7.59;100.00;94402.63;5068611;28;20519;-68
2023/02/07 06:19:16;;;;;;;52.72;27.42;;;;;;;-7.55;100.00;94397.41;5059154;28;20051;-68
2023/02/07 06:21:44;;;;;;;56.03;29.40;;;;;;;-7.55;100.00;94406.63;5049051;28;20072;-68
2023/02/07 06:24:11;;;;;;;62.78;29.65;;;;;;;-7.52;100.00;94412.28;5048908;28;20056;-68
2023/02/07 06:26:38;;;;;;;61.20;29.23;;;;;;;-7.53;100.00;94412.34;5048792;28;20041;-68
2023/02/07 06:29:04;;;;;;;60.88;30.85;;;;;;;-7.51;100.00;94421.38;5055222;28;20417;-68
2023/02/07 06:31:31;;;;;;;52.78;26.73;;;;;;;-7.51;100.00;94418.88;5068459;28;20405;-68
2023/02/07 06:33:58;;;;;;;37.13;21.02;;;;;;;-7.47;100.00;94421.22;5068899;28;20060;-68
2023/02/07 06:36:25;;;;;;;34.80;19.92;;;;;;;-7.45;100.00;94421.97;5068802;28;20113;-68
2023/02/07 06:38:54;;;;;;;38.08;21.63;;;;;;;-7.40;100.00;94432.56;5068433;28;20048;-68
2023/02/07 06:41:21;;;;;;;16.52;11.93;;;;;;;-7.33;100.00;94433.09;5068811;28;20439;-68
2023/02/07 06:43:48;;;;;;;32.30;17.67;;;;;;;-7.29;100.00;94445.34;5068792;28;20044;-68
2023/02/07 06:46:14;;;;;;;14.30;9.73;;;;;;;-7.33;100.00;94441.38;5068636;28;20052;-68
2023/02/07 06:48:41;;;;;;;14.75;10.05;;;;;;;-7.23;100.00;94446.75;5068725;28;20045;-68
2023/02/07 06:51:08;;;;;;;15.65;10.80;;;;;;;-7.26;100.00;94442.69;5068545;28;20047;-68
2023/02/07 06:53:35;;;;;;;21.27;13.75;;;;;;;-7.00;100.00;94442.38;5068240;28;20543;-68
2023/02/07 06:56:03;;;;;;;15.60;10.85;;;;;;;-7.09;100.00;94443.59;5068256;28;20566;-68
2023/02/07 06:58:30;;;;;;;32.05;20.80;;;;;;;-6.88;100.00;94443.47;5068114;28;20498;-68
2023/02/07 07:00:57;;;;;;;13.15;9.98;;;;;;;-6.93;100.00;94452.88;5068475;28;20052;-68
2023/02/07 07:03:27;;;;;;;14.02;9.25;;;;;;;-6.84;100.00;94447.47;5069700;28;20451;-68
2023/02/07 07:05:54;;;;;;;14.10;10.38;;;;;;;-6.98;100.00;94453.09;5051385;28;20044;-68
2023/02/07 07:08:21;;;;;;;29.20;18.40;;;;;;;-6.94;100.00;94446.28;5052181;28;20091;-68
2023/02/07 07:10:47;;;;;;;27.92;17.83;;;;;;;-6.83;100.00;94441.56;5052162;28;20060;-68
2023/02/07 07:13:15;;;;;;;26.90;17.80;;;;;;;-6.70;100.00;94451.81;5052526;28;20544;-68
2023/02/07 07:15:42;;;;;;;26.88;18.77;;;;;;;-6.61;100.00;94453.03;5052041;28;20056;-68
2023/02/07 07:18:09;;;;;;;47.42;23.80;;;;;;;-6.65;100.00;94456.56;5051537;28;20551;-68
2023/02/07 07:20:36;;;;;;;44.65;22.77;;;;;;;-6.52;100.00;94454.28;5051263;28;20040;-68
2023/02/07 07:23:02;;;;;;;24.15;14.82;;;;;;;-6.31;100.00;94459.91;5051870;28;20041;-68
2023/02/07 07:25:29;;;;;;;34.10;18.48;;;;;;;-6.34;100.00;94457.59;5052012;28;20068;-68
2023/02/07 07:27:57;;;;;;;22.80;13.82;;;;;;;-6.33;100.00;94460.00;5051968;28;20041;-68
2023/02/07 07:30:25;;;;;;;25.45;15.25;;;;;;;-6.41;100.00;94453.75;5069548;28;20047;-68
2023/02/07 07:32:52;;;;;;;30.85;17.83;;;;;;;-6.40;100.00;94446.19;5071751;28;20044;-68
2023/02/07 07:35:19;;;;;;;37.42;20.27;;;;;;;-6.32;100.00;94451.63;5066658;28;20051;-68
2023/02/07 07:37:46;;;;;;;26.88;14.77;;;;;;;-6.20;100.00;94452.69;5051700;28;20041;-68
2023/02/07 07:40:13;;;;;;;33.90;18.52;;;;;;;-6.02;100.00;94449.34;5051696;28;20045;-68
2023/02/07 07:42:39;;;;;;;30.33;18.75;;;;;;;-5.95;100.00;94448.94;5051807;28;20040;-68
2023/02/07 07:45:07;;;;;;;32.75;20.33;;;;;;;-5.93;100.00;94443.84;5051762;28;20045;-68
2023/02/07 07:47:35;;;;;;;17.08;10.57;;;;;;;-5.79;100.00;94448.16;5049299;28;20048;-68
2023/02/07 07:50:02;;;;;;;16.55;10.75;;;;;;;-5.98;100.00;94431.56;5051656;28;20056;-68
2023/02/07 07:52:29;;;;;;;20.80;12.07;;;;;;;-5.89;100.00;94450.28;5051246;28;20087;-68
2023/02/07 07:54:56;;;;;;;26.88;16.65;;;;;;;-5.84;100.00;94450.09;5051320;28;20107;-68
2023/02/07 07:57:26;;;;;;;20.35;12.85;;;;;;;-5.97;100.00;94448.19;5051788;28;20448;-68
2023/02/07 07:59:53;;;;;;;18.58;12.40;;;;;;;-5.91;100.00;94445.41;5045408;28;20045;-68
2023/02/07 08:02:20;;;;;;;15.18;10.05;;;;;;;-5.58;100.00;94451.22;5071392;28;20565;-68
2023/02/07 08:04:48;;;;;;;17.75;10.75;;;;;;;-5.52;100.00;94447.56;5071840;28;20127;-68
2023/02/07 08:07:15;;;;;;;18.98;12.75;;;;;;;-5.23;100.00;94446.03;5071184;28;20052;-68
2023/02/07 08:09:42;;;;;;;14.95;10.63;;;;;;;-5.02;100.00;94443.25;5071441;28;20053;-68
2023/02/07 08:12:09;;;;;;;19.02;12.40;;;;;;;-4.89;100.00;94450.91;5071509;28;20162;-68
2023/02/07 08:14:36;;;;;;;11.43;8.73;;;;;;;-5.02;100.00;94455.78;5063048;28;20052;-68
2023/02/07 08:17:02;;;;;;;11.55;7.72;;;;;;;-4.98;100.00;94457.25;5066585;28;20071;-68
2023/02/07 08:19:29;;;;;;;13.52;9.75;;;;;;;-5.23;100.00;94453.53;5071443;28;20578;-68
2023/02/07 08:21:57;;;;;;;11.98;7.45;;;;;;;-5.29;100.00;94451.38;5058655;28;20094;-68
2023/02/07 08:24:25;;;;;;;13.35;9.68;;;;;;;-5.11;100.00;94459.59;5062849;28;20094;-68
2023/02/07 08:26:52;;;;;;;9.80;7.28;;;;;;;-5.37;100.00;94461.00;5071306;28;20044;-68
2023/02/07 08:29:19;;;;;;;12.32;8.38;;;;;;;-5.24;100.00;94454.44;5071271;28;20051;-68
2023/02/07 08:31:47;;;;;;;14.00;9.02;;;;;;;-5.49;100.00;94449.94;5070726;28;20040;-68
2023/02/07 08:34:14;;;;;;;32.70;15.60;;;;;;;-5.39;100.00;94451.06;5070900;28;20052;-68
2023/02/07 08:36:41;;;;;;;14.80;9.23;;;;;;;-5.26;100.00;94457.91;5071168;28;20094;-68
2023/02/07 08:39:09;;;;;;;13.32;8.98;;;;;;;-5.04;100.00;94454.25;5070738;28;20048;-68
2023/02/07 08:41:36;;;;;;;48.55;24.13;;;;;;;-4.96;100.00;94457.97;5070949;28;20629;-68
2023/02/07 08:44:03;;;;;;;17.75;10.43;;;;;;;-5.02;100.00;94457.47;5070749;28;20051;-68
2023/02/07 08:46:30;;;;;;;23.92;13.68;;;;;;;-5.18;100.00;94457.50;5070661;28;20090;-68
2023/02/07 08:48:56;;;;;;;18.45;11.80;;;;;;;-5.06;100.00;94453.53;5070948;28;20097;-68
2023/02/07 08:51:23;;;;;;;17.70;12.32;;;;;;;-5.05;100.00;94453.44;5070375;28;20185;-68
2023/02/07 08:56:36;;;;;;;16.10;11.05;;;;;;;-5.14;100.00;94462.25;5070218;28;20443;-68
2023/02/07 08:59:02;;;;;;;14.27;10.80;;;;;;;-4.97;100.00;94465.56;5070813;28;20052;-68
2023/02/07 09:01:29;;;;;;;18.00;11.98;;;;;;;-4.89;100.00;94468.47;5070503;28;20044;-68
2023/02/07 09:03:56;;;;;;;23.75;13.45;;;;;;;-5.13;100.00;94465.59;5069882;28;20505;-68
2023/02/07 09:06:23;;;;;;;24.60;13.38;;;;;;;-5.22;100.00;94464.38;5043693;28;20045;-68
2023/02/07 09:08:51;;;;;;;25.30;13.23;;;;;;;-5.17;100.00;94462.44;5056624;28;20498;-68
2023/02/07 09:11:17;;;;;;;14.57;8.77;;;;;;;-5.08;100.00;94453.63;5063049;28;20047;-68
2023/02/07 09:13:46;;;;;;;18.92;11.63;;;;;;;-5.18;100.00;94463.34;5064237;28;20408;-68
2023/02/07 09:16:14;;;;;;;11.40;7.13;;;;;;;-5.06;100.00;94466.84;5069914;28;20102;-68
2023/02/07 09:18:41;;;;;;;13.05;8.23;;;;;;;-5.03;100.00;94465.88;5070327;28;20045;-68
2023/02/07 09:21:08;;;;;;;10.90;6.88;;;;;;;-4.79;100.00;94455.41;5062104;28;20053;-68
2023/02/07 09:23:35;;;;;;;9.95;6.57;;;;;;;-4.53;100.00;94453.16;5064623;28;20052;-68
2023/02/07 09:26:04;;;;;;;11.02;6.93;;;;;;;-4.19;100.00;94456.25;5069145;28;20139;-68
2023/02/07 09:28:31;;;;;;;11.23;7.03;;;;;;;-4.04;96.49;94459.56;5069820;28;20056;-68
2023/02/07 09:31:00;;;;;;;12.02;8.43;;;;;;;-4.01;97.13;94454.38;5059008;28;20044;-68
2023/02/07 09:33:28;;;;;;;11.20;8.20;;;;;;;-3.71;98.59;94453.44;5069984;28;20059;-68
2023/02/07 09:35:55;;;;;;;11.00;7.75;;;;;;;-3.85;96.06;94454.25;5069305;28;20129;-68
2023/02/07 09:38:24;;;;;;;10.73;7.50;;;;;;;-3.99;96.71;94444.25;5057357;28;20052;-68
2023/02/07 09:40:52;;;;;;;10.55;7.40;;;;;;;-3.74;97.35;94445.28;5049616;28;20409;-68
2023/02/07 09:43:30;;;;;;;9.00;6.15;;;;;;;-4.06;95.60;94446.31;5049558;28;20087;-68
2023/02/07 09:46:02;;;;;;;12.10;7.20;;;;;;;-4.23;94.93;94444.75;5049288;28;20049;-68
2023/02/07 09:48:37;;;;;;;12.27;8.50;;;;;;;-4.12;97.25;94446.66;5049143;28;20497;-68
2023/02/07 09:51:06;;;;;;;18.73;11.80;;;;;;;-3.88;97.75;94446.94;5065570;28;20044;-68
2023/02/07 09:53:43;;;;;;;48.00;28.50;;;;;;;-3.85;94.21;94444.22;5068828;28;21621;-68
2023/02/07 09:56:10;;;;;;;60.33;42.28;;;;;;;-3.67;95.75;94428.94;5069216;28;20106;-68
2023/02/07 09:58:44;;;;;;;29.80;16.52;;;;;;;-3.46;97.43;94436.91;5069231;28;20185;-68
2023/02/07 10:01:16;;;;;;;18.95;11.85;;;;;;;-3.84;96.57;94433.28;5063071;28;20090;-68
2023/02/07 10:03:51;;;;;;;16.30;10.57;;;;;;;-3.81;100.00;94428.09;5053981;28;20398;-68
2023/02/07 10:06:26;;;;;;;16.92;10.57;;;;;;;-4.05;99.55;94426.13;5067454;28;20098;-68
2023/02/07 10:08:56;;;;;;;13.43;9.55;;;;;;;-4.33;100.00;94424.41;5060411;28;20068;-68
2023/02/07 10:11:34;;;;;;;25.73;16.85;;;;;;;-4.60;100.00;94415.06;5068637;28;20044;-68
2023/02/07 10:14:13;;;;;;;24.40;15.65;;;;;;;-4.39;100.00;94417.25;5069114;28;20128;-68
2023/02/07 10:16:53;;;;;;;28.23;16.83;;;;;;;-4.65;100.00;94407.00;5068580;28;20063;-68
2023/02/07 10:19:35;;;;;;;52.42;31.50;;;;;;;-4.71;100.00;94410.66;5068955;28;20086;-68
2023/02/07 10:22:15;;;;;;;20.85;12.80;;;;;;;-4.55;100.00;94410.59;5068806;28;20040;-68
2023/02/07 10:24:59;;;;;;;22.08;14.35;;;;;;;-4.62;100.00;94405.16;5069033;28;20546;-68
2023/02/07 10:27:30;;;;;;;23.25;14.05;;;;;;;-4.58;100.00;94391.50;5068911;28;20463;-68
2023/02/07 10:30:04;;;;;;;16.77;10.23;;;;;;;-4.50;100.00;94392.81;5063122;28;20496;-68
2023/02/07 10:32:35;;;;;;;42.75;21.83;;;;;;;-4.17;100.00;94392.53;5056786;28;20119;-68
2023/02/07 10:35:14;;;;;;;17.63;11.10;;;;;;;-4.09;100.00;94394.59;5068729;28;20070;-68
2023/02/07 10:37:44;;;;;;;15.68;11.15;;;;;;;-4.02;100.00;94390.00;5069014;28;20495;-68
2023/02/07 10:40:15;;;;;;;12.45;9.18;;;;;;;-4.18;100.00;94405.16;5069063;28;20420;-68
2023/02/07 10:42:46;;;;;;;16.58;10.90;;;;;;;-4.32;100.00;94396.75;5068652;28;20098;-68
2023/02/07 10:45:14;;;;;;;24.52;13.70;;;;;;;-4.26;100.00;94398.06;5068627;28;20124;-68
2023/02/07 10:47:42;;;;;;;22.73;13.27;;;;;;;-4.54;100.00;94396.38;5068859;28;20389;-68
2023/02/07 10:50:13;;;;;;;17.25;10.60;;;;;;;-4.66;100.00;94397.88;5069269;28;20045;-68
2023/02/07 10:52:44;;;;;;;19.50;11.05;;;;;;;-5.02;100.00;94360.56;5068326;28;20059;-68
2023/02/07 10:55:13;;;;;;;18.92;11.23;;;;;;;-4.84;100.00;94388.00;5068994;28;20118;-68
2023/02/07 10:57:39;;;;;;;30.00;17.33;;;;;;;-4.67;100.00;94387.03;5068199;28;20056;-68
2023/02/07 11:00:17;;;;;;;27.77;15.45;;;;;;;-4.47;100.00;94385.91;5068548;28;20090;-68
2023/02/07 11:02:50;;;;;;;19.45;11.88;;;;;;;-4.31;100.00;94383.28;5068834;28;20589;-68
2023/02/07 11:05:33;;;;;;;17.95;10.82;;;;;;;-4.40;100.00;94383.81;5058677;28;20166;-68
2023/02/07 11:08:02;;;;;;;15.02;10.00;;;;;;;-4.31;100.00;94372.44;5063318;28;20443;-68
2023/02/07 11:10:33;;;;;;;19.48;12.05;;;;;;;-4.26;100.00;94349.63;5068440;28;20043;-68
2023/02/07 11:13:01;;;;;;;15.90;10.23;;;;;;;-4.18;97.55;94367.50;5068259;28;20049;-68
2023/02/07 11:15:36;;;;;;;34.92;20.83;;;;;;;-4.04;96.76;94372.53;5068276;28;20060;-69
2023/02/07 11:18:06;;;;;;;23.85;13.27;;;;;;;-3.93;99.10;94366.84;5068155;28;20049;-68
2023/02/07 11:20:36;;;;;;;17.25;10.23;;;;;;;-3.89;96.79;94367.50;5055970;28;20504;-68
2023/02/07 11:23:07;;;;;;;20.10;12.77;;;;;;;-3.67;93.50;94366.16;5068844;28;20099;-68
2023/02/07 11:25:38;;;;;;;14.88;10.38;;;;;;;-3.38;96.32;94361.06;5056556;28;20386;-68
2023/02/07 11:28:07;;;;;;;14.32;8.93;;;;;;;-3.46;97.66;94361.56;5059605;28;20055;-68